sensor_id;sensor_type;location;lat;lon;timestamp;pressure;altitude;pressure_sealevel;temperature;humidity
42601;BME280;28229;48.856;9.088;2022-08-18T00:01:48;97695.78;;;19.48;73.33
42601;BME280;28229;48.856;9.088;2022-08-18T00:04:15;97697.06;;;19.56;73.37
42601;BME280;28229;48.856;9.088;2022-08-18T00:06:41;97684.81;;;19.50;73.51
42601;BME280;28229;48.856;9.088;2022-08-18T00:09:08;97691.25;;;19.49;73.44
42601;BME280;28229;48.856;9.088;2022-08-18T00:11:40;97682.28;;;19.39;74.92
42601;BME280;28229;48.856;9.088;2022-08-18T00:14:14;97685.97;;;19.44;74.27
42601;BME280;28229;48.856;9.088;2022-08-18T00:16:42;97688.41;;;19.40;75.01
42601;BME280;28229;48.856;9.088;2022-08-18T00:19:08;97689.75;;;19.37;75.37
42601;BME280;28229;48.856;9.088;2022-08-18T00:21:34;97684.47;;;19.32;75.52
42601;BME280;28229;48.856;9.088;2022-08-18T00:24:00;97677.81;;;19.30;75.38
42601;BME280;28229;48.856;9.088;2022-08-18T00:26:26;97681.88;;;19.22;75.98
42601;BME280;28229;48.856;9.088;2022-08-18T00:28:53;97678.13;;;19.23;76.01
42601;BME280;28229;48.856;9.088;2022-08-18T00:31:19;97676.06;;;19.15;76.34
42601;BME280;28229;48.856;9.088;2022-08-18T00:33:44;97676.59;;;19.17;76.68
42601;BME280;28229;48.856;9.088;2022-08-18T00:36:10;97670.81;;;19.05;76.71
42601;BME280;28229;48.856;9.088;2022-08-18T00:38:37;97670.19;;;19.18;76.17
42601;BME280;28229;48.856;9.088;2022-08-18T00:41:04;97674.47;;;19.14;76.23
42601;BME280;28229;48.856;9.088;2022-08-18T00:43:49;97675.66;;;18.97;76.30
42601;BME280;28229;48.856;9.088;2022-08-18T00:46:21;97666.53;;;19.03;76.41
42601;BME280;28229;48.856;9.088;2022-08-18T00:48:48;97662.63;;;18.96;77.24
42601;BME280;28229;48.856;9.088;2022-08-18T00:54:09;97657.53;;;18.99;77.06
42601;BME280;28229;48.856;9.088;2022-08-18T00:56:41;97659.56;;;19.13;76.50
42601;BME280;28229;48.856;9.088;2022-08-18T00:59:15;97653.38;;;19.17;76.25
42601;BME280;28229;48.856;9.088;2022-08-18T01:01:43;97649.94;;;19.17;76.49
42601;BME280;28229;48.856;9.088;2022-08-18T01:04:15;97653.13;;;19.14;77.00
42601;BME280;28229;48.856;9.088;2022-08-18T01:06:52;97645.19;;;19.09;76.93
42601;BME280;28229;48.856;9.088;2022-08-18T01:09:19;97642.00;;;19.07;76.97
42601;BME280;28229;48.856;9.088;2022-08-18T01:11:45;97640.50;;;18.95;77.88
42601;BME280;28229;48.856;9.088;2022-08-18T01:14:13;97633.91;;;18.88;78.79
42601;BME280;28229;48.856;9.088;2022-08-18T01:16:46;97632.66;;;18.70;80.03
42601;BME280;28229;48.856;9.088;2022-08-18T01:19:33;97640.66;;;18.70;80.37
42601;BME280;28229;48.856;9.088;2022-08-18T01:22:28;97633.91;;;18.88;80.05
42601;BME280;28229;48.856;9.088;2022-08-18T01:24:58;97629.72;;;18.71;80.85
42601;BME280;28229;48.856;9.088;2022-08-18T01:27:44;97631.03;;;18.74;81.18
42601;BME280;28229;48.856;9.088;2022-08-18T01:30:13;97624.63;;;18.75;81.54
42601;BME280;28229;48.856;9.088;2022-08-18T01:32:40;97611.25;;;18.80;81.84
42601;BME280;28229;48.856;9.088;2022-08-18T01:35:08;97618.19;;;18.81;81.66
42601;BME280;28229;48.856;9.088;2022-08-18T01:37:36;97607.81;;;18.79;81.29
42601;BME280;28229;48.856;9.088;2022-08-18T01:40:04;97603.00;;;18.87;81.35
42601;BME280;28229;48.856;9.088;2022-08-18T01:42:32;97601.38;;;18.86;81.60
42601;BME280;28229;48.856;9.088;2022-08-18T01:44:58;97602.25;;;18.76;82.73
42601;BME280;28229;48.856;9.088;2022-08-18T01:47:24;97593.22;;;18.72;83.17
42601;BME280;28229;48.856;9.088;2022-08-18T01:49:50;97597.97;;;18.75;82.73
42601;BME280;28229;48.856;9.088;2022-08-18T01:52:20;97600.13;;;18.73;82.87
42601;BME280;28229;48.856;9.088;2022-08-18T01:54:47;97601.84;;;18.58;83.46
42601;BME280;28229;48.856;9.088;2022-08-18T01:57:16;97596.00;;;18.56;83.79
42601;BME280;28229;48.856;9.088;2022-08-18T01:59:43;97584.22;;;18.62;83.45
42601;BME280;28229;48.856;9.088;2022-08-18T02:02:14;97581.53;;;18.62;83.70
42601;BME280;28229;48.856;9.088;2022-08-18T02:04:41;97581.97;;;18.40;84.78
42601;BME280;28229;48.856;9.088;2022-08-18T02:07:10;97584.41;;;18.37;85.13
42601;BME280;28229;48.856;9.088;2022-08-18T02:09:38;97590.78;;;18.36;85.07
42601;BME280;28229;48.856;9.088;2022-08-18T02:12:05;97597.75;;;18.32;85.61
42601;BME280;28229;48.856;9.088;2022-08-18T02:14:33;97597.25;;;18.24;86.91
42601;BME280;28229;48.856;9.088;2022-08-18T02:17:02;97596.69;;;18.33;85.93
42601;BME280;28229;48.856;9.088;2022-08-18T02:19:46;97591.59;;;18.36;85.35
42601;BME280;28229;48.856;9.088;2022-08-18T02:22:16;97589.22;;;18.35;85.13
42601;BME280;28229;48.856;9.088;2022-08-18T02:24:43;97583.09;;;18.34;85.25
42601;BME280;28229;48.856;9.088;2022-08-18T02:27:11;97576.41;;;18.37;85.07
42601;BME280;28229;48.856;9.088;2022-08-18T02:29:38;97573.78;;;18.32;84.83
42601;BME280;28229;48.856;9.088;2022-08-18T02:32:05;97578.63;;;18.24;85.54
42601;BME280;28229;48.856;9.088;2022-08-18T02:34:31;97572.78;;;18.17;86.59
42601;BME280;28229;48.856;9.088;2022-08-18T02:37:00;97580.22;;;18.25;85.51
42601;BME280;28229;48.856;9.088;2022-08-18T02:39:27;97576.66;;;18.40;84.94
42601;BME280;28229;48.856;9.088;2022-08-18T02:41:53;97574.00;;;18.35;85.08
42601;BME280;28229;48.856;9.088;2022-08-18T02:44:19;97581.25;;;18.30;85.23
42601;BME280;28229;48.856;9.088;2022-08-18T02:46:45;97574.00;;;18.35;85.29
42601;BME280;28229;48.856;9.088;2022-08-18T02:49:11;97578.06;;;18.27;85.96
42601;BME280;28229;48.856;9.088;2022-08-18T02:51:37;97584.47;;;18.21;86.33
42601;BME280;28229;48.856;9.088;2022-08-18T02:54:04;97580.22;;;18.25;86.67
42601;BME280;28229;48.856;9.088;2022-08-18T02:56:50;97583.94;;;18.24;86.32
42601;BME280;28229;48.856;9.088;2022-08-18T02:59:21;97583.72;;;18.16;87.20
42601;BME280;28229;48.856;9.088;2022-08-18T03:01:51;97577.34;;;18.12;86.86
42601;BME280;28229;48.856;9.088;2022-08-18T03:04:27;97581.41;;;17.99;87.94
42601;BME280;28229;48.856;9.088;2022-08-18T03:06:55;97580.53;;;18.14;86.91
42601;BME280;28229;48.856;9.088;2022-08-18T03:09:22;97574.41;;;18.18;86.16
42601;BME280;28229;48.856;9.088;2022-08-18T03:11:48;97585.06;;;18.13;87.21
42601;BME280;28229;48.856;9.088;2022-08-18T03:14:14;97568.59;;;18.11;86.71
42601;BME280;28229;48.856;9.088;2022-08-18T03:16:44;97573.34;;;18.14;87.11
42601;BME280;28229;48.856;9.088;2022-08-18T03:19:11;97568.59;;;18.11;87.83
42601;BME280;28229;48.856;9.088;2022-08-18T03:21:42;97563.25;;;18.11;87.76
42601;BME280;28229;48.856;9.088;2022-08-18T03:24:09;97557.94;;;18.11;87.82
42601;BME280;28229;48.856;9.088;2022-08-18T03:26:39;97552.31;;;18.13;88.02
42601;BME280;28229;48.856;9.088;2022-08-18T03:29:08;97550.47;;;18.13;87.81
42601;BME280;28229;48.856;9.088;2022-08-18T03:31:34;97555.78;;;18.13;87.87
42601;BME280;28229;48.856;9.088;2022-08-18T03:34:04;97549.94;;;18.11;88.75
42601;BME280;28229;48.856;9.088;2022-08-18T03:36:32;97541.41;;;18.14;88.72
42601;BME280;28229;48.856;9.088;2022-08-18T03:39:00;97554.97;;;18.13;88.72
42601;BME280;28229;48.856;9.088;2022-08-18T03:41:29;97546.47;;;18.11;88.64
42601;BME280;28229;48.856;9.088;2022-08-18T03:43:56;97553.16;;;18.08;89.60
42601;BME280;28229;48.856;9.088;2022-08-18T03:46:22;97544.09;;;18.09;89.49
42601;BME280;28229;48.856;9.088;2022-08-18T03:48:49;97552.63;;;18.06;89.70
42601;BME280;28229;48.856;9.088;2022-08-18T03:51:21;97551.56;;;18.07;89.71
42601;BME280;28229;48.856;9.088;2022-08-18T03:53:50;97545.91;;;18.19;88.14
42601;BME280;28229;48.856;9.088;2022-08-18T03:56:19;97536.31;;;18.18;88.35
42601;BME280;28229;48.856;9.088;2022-08-18T03:58:48;97540.84;;;18.17;87.96
42601;BME280;28229;48.856;9.088;2022-08-18T04:01:16;97542.75;;;18.12;88.09
42601;BME280;28229;48.856;9.088;2022-08-18T04:03:43;97545.44;;;18.06;88.96
42601;BME280;28229;48.856;9.088;2022-08-18T04:06:17;97542.00;;;18.06;89.00
42601;BME280;28229;48.856;9.088;2022-08-18T04:08:44;97543.06;;;18.05;89.87
42601;BME280;28229;48.856;9.088;2022-08-18T04:11:11;97533.69;;;18.13;88.72
42601;BME280;28229;48.856;9.088;2022-08-18T04:13:39;97536.94;;;18.04;89.66
42601;BME280;28229;48.856;9.088;2022-08-18T04:16:05;97536.69;;;18.01;89.88
42601;BME280;28229;48.856;9.088;2022-08-18T04:18:31;97540.38;;;18.05;89.58
42601;BME280;28229;48.856;9.088;2022-08-18T04:21:02;97547.56;;;18.10;89.51
42601;BME280;28229;48.856;9.088;2022-08-18T04:23:29;97546.50;;;18.05;89.57
42601;BME280;28229;48.856;9.088;2022-08-18T04:25:59;97544.69;;;18.01;89.50
42601;BME280;28229;48.856;9.088;2022-08-18T04:28:26;97554.25;;;18.02;89.52
42601;BME280;28229;48.856;9.088;2022-08-18T04:30:53;97544.94;;;18.04;88.81
42601;BME280;28229;48.856;9.088;2022-08-18T04:33:25;97555.78;;;18.13;88.28
42601;BME280;28229;48.856;9.088;2022-08-18T04:35:52;97557.59;;;18.18;88.15
42601;BME280;28229;48.856;9.088;2022-08-18T04:38:18;97561.38;;;18.17;87.48
42601;BME280;28229;48.856;9.088;2022-08-18T04:40:44;97565.84;;;18.21;87.30
42601;BME280;28229;48.856;9.088;2022-08-18T04:43:12;97571.63;;;18.34;86.58
42601;BME280;28229;48.856;9.088;2022-08-18T04:45:41;97561.78;;;18.34;86.22
42601;BME280;28229;48.856;9.088;2022-08-18T04:48:07;97567.72;;;18.21;86.82
42601;BME280;28229;48.856;9.088;2022-08-18T04:50:35;97568.72;;;18.30;86.81
42601;BME280;28229;48.856;9.088;2022-08-18T04:53:01;97576.25;;;18.18;87.35
42601;BME280;28229;48.856;9.088;2022-08-18T04:55:51;97571.28;;;18.06;87.60
42601;BME280;28229;48.856;9.088;2022-08-18T04:58:19;97584.06;;;18.04;88.28
42601;BME280;28229;48.856;9.088;2022-08-18T05:00:46;97583.25;;;18.03;88.18
42601;BME280;28229;48.856;9.088;2022-08-18T05:03:12;97577.91;;;18.08;87.86
42601;BME280;28229;48.856;9.088;2022-08-18T05:05:38;97584.97;;;18.29;87.10
42601;BME280;28229;48.856;9.088;2022-08-18T05:08:04;97580.25;;;18.15;87.57
42601;BME280;28229;48.856;9.088;2022-08-18T05:10:30;97591.13;;;18.24;87.05
42601;BME280;28229;48.856;9.088;2022-08-18T05:12:56;97598.88;;;18.20;87.86
42601;BME280;28229;48.856;9.088;2022-08-18T05:15:22;97597.97;;;18.35;86.89
42601;BME280;28229;48.856;9.088;2022-08-18T05:17:48;97599.91;;;18.24;88.05
42601;BME280;28229;48.856;9.088;2022-08-18T05:20:14;97604.69;;;18.27;87.96
42601;BME280;28229;48.856;9.088;2022-08-18T05:22:41;97605.19;;;18.35;87.96
42601;BME280;28229;48.856;9.088;2022-08-18T05:25:10;97596.66;;;18.38;87.61
42601;BME280;28229;48.856;9.088;2022-08-18T05:27:39;97590.47;;;18.42;87.63
42601;BME280;28229;48.856;9.088;2022-08-18T05:30:07;97585.41;;;18.46;86.88
42601;BME280;28229;48.856;9.088;2022-08-18T05:32:38;97578.97;;;18.52;86.37
42601;BME280;28229;48.856;9.088;2022-08-18T05:35:22;97567.97;;;18.59;86.44
42601;BME280;28229;48.856;9.088;2022-08-18T05:38:00;97576.19;;;18.68;86.33
42601;BME280;28229;48.856;9.088;2022-08-18T05:40:29;97567.56;;;18.81;86.25
42601;BME280;28229;48.856;9.088;2022-08-18T05:42:57;97568.31;;;18.92;86.07
42601;BME280;28229;48.856;9.088;2022-08-18T05:45:25;97577.50;;;19.05;83.93
42601;BME280;28229;48.856;9.088;2022-08-18T05:47:57;97577.41;;;19.15;83.76
42601;BME280;28229;48.856;9.088;2022-08-18T05:50:25;97573.38;;;19.17;83.00
42601;BME280;28229;48.856;9.088;2022-08-18T05:55:28;97576.63;;;19.38;81.54
42601;BME280;28229;48.856;9.088;2022-08-18T05:58:21;97574.94;;;19.48;80.63
42601;BME280;28229;48.856;9.088;2022-08-18T06:00:54;97572.50;;;19.51;80.17
42601;BME280;28229;48.856;9.088;2022-08-18T06:03:24;97573.06;;;19.48;80.00
42601;BME280;28229;48.856;9.088;2022-08-18T06:05:54;97563.16;;;19.54;79.57
42601;BME280;28229;48.856;9.088;2022-08-18T06:08:30;97567.97;;;19.52;79.83
42601;BME280;28229;48.856;9.088;2022-08-18T06:10:58;97566.81;;;19.58;79.02
42601;BME280;28229;48.856;9.088;2022-08-18T06:13:24;97575.28;;;19.65;78.79
42601;BME280;28229;48.856;9.088;2022-08-18T06:16:11;97573.06;;;19.72;78.71
42601;BME280;28229;48.856;9.088;2022-08-18T06:18:53;97580.81;;;19.74;78.08
42601;BME280;28229;48.856;9.088;2022-08-18T06:24:26;97587.84;;;19.89;77.36
42601;BME280;28229;48.856;9.088;2022-08-18T06:32:42;97620.47;;;19.86;76.79
42601;BME280;28229;48.856;9.088;2022-08-18T06:43:36;97618.03;;;20.08;75.98
42601;BME280;28229;48.856;9.088;2022-08-18T06:46:17;97609.16;;;20.13;74.84
42601;BME280;28229;48.856;9.088;2022-08-18T06:48:54;97597.91;;;20.16;74.12
42601;BME280;28229;48.856;9.088;2022-08-18T06:51:22;97597.53;;;20.23;74.57
42601;BME280;28229;48.856;9.088;2022-08-18T06:59:33;97579.56;;;20.47;73.94
42601;BME280;28229;48.856;9.088;2022-08-18T07:02:17;97584.19;;;20.61;72.78
42601;BME280;28229;48.856;9.088;2022-08-18T07:05:01;97584.47;;;20.59;70.59
42601;BME280;28229;48.856;9.088;2022-08-18T07:07:37;97584.47;;;20.59;71.42
42601;BME280;28229;48.856;9.088;2022-08-18T07:10:32;97582.44;;;20.51;70.74
42601;BME280;28229;48.856;9.088;2022-08-18T07:15:39;97596.81;;;20.74;70.75
42601;BME280;28229;48.856;9.088;2022-08-18T07:18:07;97609.53;;;20.82;70.34
42601;BME280;28229;48.856;9.088;2022-08-18T07:20:51;97615.88;;;20.86;70.46
42601;BME280;28229;48.856;9.088;2022-08-18T07:23:37;97624.19;;;20.85;70.39
42601;BME280;28229;48.856;9.088;2022-08-18T07:26:08;97629.25;;;20.86;69.74
42601;BME280;28229;48.856;9.088;2022-08-18T07:28:48;97633.53;;;20.87;69.74
42601;BME280;28229;48.856;9.088;2022-08-18T07:34:11;97639.75;;;20.83;70.64
42601;BME280;28229;48.856;9.088;2022-08-18T07:39:44;97647.75;;;20.83;70.94
42601;BME280;28229;48.856;9.088;2022-08-18T07:42:16;97643.31;;;20.92;70.68
42601;BME280;28229;48.856;9.088;2022-08-18T07:44:53;97653.75;;;20.94;70.29
42601;BME280;28229;48.856;9.088;2022-08-18T07:47:25;97652.13;;;20.92;70.48
42601;BME280;28229;48.856;9.088;2022-08-18T07:49:52;97653.31;;;20.86;70.96
42601;BME280;28229;48.856;9.088;2022-08-18T07:55:31;97657.81;;;20.72;71.83
42601;BME280;28229;48.856;9.088;2022-08-18T08:01:45;97645.22;;;20.72;72.12
42601;BME280;28229;48.856;9.088;2022-08-18T08:04:03;97654.56;;;20.75;72.17
42601;BME280;28229;48.856;9.088;2022-08-18T08:06:43;97656.88;;;20.63;73.58
42601;BME280;28229;48.856;9.088;2022-08-18T08:12:14;97642.44;;;20.59;74.01
42601;BME280;28229;48.856;9.088;2022-08-18T08:14:47;97644.94;;;20.74;73.69
42601;BME280;28229;48.856;9.088;2022-08-18T08:17:24;97647.63;;;20.74;73.56
42601;BME280;28229;48.856;9.088;2022-08-18T08:22:56;97659.47;;;20.68;73.55
42601;BME280;28229;48.856;9.088;2022-08-18T08:28:41;97648.84;;;20.63;74.05
42601;BME280;28229;48.856;9.088;2022-08-18T08:31:14;97620.75;;;20.65;74.44
42601;BME280;28229;48.856;9.088;2022-08-18T08:33:48;97608.69;;;20.68;74.66
42601;BME280;28229;48.856;9.088;2022-08-18T08:36:25;97604.44;;;20.67;75.03
42601;BME280;28229;48.856;9.088;2022-08-18T08:39:03;97618.72;;;20.76;74.47
42601;BME280;28229;48.856;9.088;2022-08-18T08:41:39;97626.94;;;20.80;74.70
42601;BME280;28229;48.856;9.088;2022-08-18T08:49:43;97627.06;;;21.07;73.43
42601;BME280;28229;48.856;9.088;2022-08-18T08:52:31;97615.38;;;21.17;73.30
42601;BME280;28229;48.856;9.088;2022-08-18T08:55:08;97619.34;;;21.34;72.61
42601;BME280;28229;48.856;9.088;2022-08-18T08:57:40;97609.53;;;21.48;72.15
42601;BME280;28229;48.856;9.088;2022-08-18T09:00:09;97611.13;;;21.77;72.16
42601;BME280;28229;48.856;9.088;2022-08-18T09:05:33;97648.16;;;22.25;69.39
42601;BME280;28229;48.856;9.088;2022-08-18T09:14:29;97607.91;;;22.02;70.36
42601;BME280;28229;48.856;9.088;2022-08-18T09:17:38;97601.22;;;22.14;69.53
42601;BME280;28229;48.856;9.088;2022-08-18T09:23:11;97579.13;;;22.08;70.31
42601;BME280;28229;48.856;9.088;2022-08-18T09:28:18;97580.47;;;22.33;69.37
42601;BME280;28229;48.856;9.088;2022-08-18T09:42:00;97619.63;;;23.02;65.83
42601;BME280;28229;48.856;9.088;2022-08-18T09:47:07;97619.94;;;23.54;64.70
42601;BME280;28229;48.856;9.088;2022-08-18T09:49:45;97620.69;;;23.46;65.33
42601;BME280;28229;48.856;9.088;2022-08-18T09:57:29;97624.56;;;23.63;63.78
42601;BME280;28229;48.856;9.088;2022-08-18T10:07:52;97630.16;;;24.50;60.62
42601;BME280;28229;48.856;9.088;2022-08-18T10:10:24;97628.75;;;24.87;59.42
42601;BME280;28229;48.856;9.088;2022-08-18T10:21:29;97599.09;;;25.14;57.14
42601;BME280;28229;48.856;9.088;2022-08-18T10:24:15;97591.22;;;25.00;57.44
42601;BME280;28229;48.856;9.088;2022-08-18T10:34:49;97576.59;;;25.09;57.08
42601;BME280;28229;48.856;9.088;2022-08-18T10:37:22;97563.72;;;25.24;56.71
42601;BME280;28229;48.856;9.088;2022-08-18T10:39:56;97551.19;;;25.75;55.51
42601;BME280;28229;48.856;9.088;2022-08-18T10:42:35;97538.81;;;26.04;54.95
42601;BME280;28229;48.856;9.088;2022-08-18T10:45:23;97531.44;;;26.34;53.44
42601;BME280;28229;48.856;9.088;2022-08-18T10:50:47;97542.03;;;26.18;54.11
42601;BME280;28229;48.856;9.088;2022-08-18T10:59:12;97539.41;;;26.85;52.54
42601;BME280;28229;48.856;9.088;2022-08-18T11:04:47;97525.94;;;26.97;51.11
42601;BME280;28229;48.856;9.088;2022-08-18T11:07:19;97526.66;;;26.40;52.48
42601;BME280;28229;48.856;9.088;2022-08-18T11:09:50;97524.59;;;26.37;51.44
42601;BME280;28229;48.856;9.088;2022-08-18T11:12:57;97530.78;;;26.16;52.88
42601;BME280;28229;48.856;9.088;2022-08-18T11:15:45;97536.69;;;26.31;52.31
42601;BME280;28229;48.856;9.088;2022-08-18T11:18:34;97541.97;;;26.27;51.50
42601;BME280;28229;48.856;9.088;2022-08-18T11:21:24;97545.66;;;26.01;52.85
42601;BME280;28229;48.856;9.088;2022-08-18T11:26:31;97536.00;;;25.92;52.44
42601;BME280;28229;48.856;9.088;2022-08-18T11:29:15;97531.84;;;26.03;52.68
42601;BME280;28229;48.856;9.088;2022-08-18T11:31:41;97538.81;;;26.04;52.75
42601;BME280;28229;48.856;9.088;2022-08-18T11:34:16;97541.91;;;26.15;52.69
42601;BME280;28229;48.856;9.088;2022-08-18T11:36:42;97539.31;;;26.39;51.42
42601;BME280;28229;48.856;9.088;2022-08-18T11:39:09;97534.31;;;26.50;50.98
42601;BME280;28229;48.856;9.088;2022-08-18T11:41:36;97539.03;;;26.53;50.54
42601;BME280;28229;48.856;9.088;2022-08-18T11:44:03;97538.41;;;26.35;51.13
42601;BME280;28229;48.856;9.088;2022-08-18T11:46:36;97536.19;;;26.16;51.25
42601;BME280;28229;48.856;9.088;2022-08-18T11:49:27;97527.63;;;26.14;51.15
42601;BME280;28229;48.856;9.088;2022-08-18T11:52:21;97533.16;;;26.39;51.11
42601;BME280;28229;48.856;9.088;2022-08-18T11:54:49;97524.09;;;26.23;50.41
42601;BME280;28229;48.856;9.088;2022-08-18T12:03:07;97497.50;;;26.33;50.15
42601;BME280;28229;48.856;9.088;2022-08-18T12:05:53;97490.13;;;26.43;50.50
42601;BME280;28229;48.856;9.088;2022-08-18T12:08:34;97493.03;;;26.71;48.78
42601;BME280;28229;48.856;9.088;2022-08-18T12:11:28;97492.84;;;26.76;48.50
42601;BME280;28229;48.856;9.088;2022-08-18T12:14:07;97479.22;;;26.72;48.56
42601;BME280;28229;48.856;9.088;2022-08-18T12:16:42;97473.72;;;26.81;47.66
42601;BME280;28229;48.856;9.088;2022-08-18T12:19:11;97481.88;;;26.60;49.05
42601;BME280;28229;48.856;9.088;2022-08-18T12:21:52;97483.75;;;26.59;47.76
42601;BME280;28229;48.856;9.088;2022-08-18T12:24:29;97485.84;;;26.75;47.03
42601;BME280;28229;48.856;9.088;2022-08-18T12:26:56;97478.00;;;26.82;47.38
42601;BME280;28229;48.856;9.088;2022-08-18T12:29:24;97483.97;;;27.12;47.34
42601;BME280;28229;48.856;9.088;2022-08-18T12:31:51;97489.00;;;26.77;47.80
42601;BME280;28229;48.856;9.088;2022-08-18T12:34:20;97489.44;;;26.67;48.71
42601;BME280;28229;48.856;9.088;2022-08-18T12:36:54;97475.09;;;27.00;48.14
42601;BME280;28229;48.856;9.088;2022-08-18T12:39:20;97466.41;;;26.82;48.69
42601;BME280;28229;48.856;9.088;2022-08-18T12:41:46;97465.06;;;27.00;48.55
42601;BME280;28229;48.856;9.088;2022-08-18T12:44:15;97459.16;;;27.31;46.02
42601;BME280;28229;48.856;9.088;2022-08-18T12:46:41;97470.59;;;27.04;47.36
42601;BME280;28229;48.856;9.088;2022-08-18T12:49:15;97470.28;;;27.42;45.97
42601;BME280;28229;48.856;9.088;2022-08-18T12:51:42;97464.66;;;27.60;45.57
42601;BME280;28229;48.856;9.088;2022-08-18T12:54:08;97466.09;;;27.57;44.97
42601;BME280;28229;48.856;9.088;2022-08-18T12:56:34;97457.09;;;27.65;44.09
42601;BME280;28229;48.856;9.088;2022-08-18T12:59:04;97443.56;;;27.65;43.84
42601;BME280;28229;48.856;9.088;2022-08-18T13:01:32;97435.41;;;27.90;44.30
42601;BME280;28229;48.856;9.088;2022-08-18T13:03:59;97439.22;;;28.01;43.19
42601;BME280;28229;48.856;9.088;2022-08-18T13:06:26;97434.50;;;28.42;43.17
42601;BME280;28229;48.856;9.088;2022-08-18T13:08:52;97428.06;;;28.47;42.62
42601;BME280;28229;48.856;9.088;2022-08-18T13:11:21;97418.69;;;28.00;43.18
42601;BME280;28229;48.856;9.088;2022-08-18T13:13:48;97413.94;;;28.09;43.22
42601;BME280;28229;48.856;9.088;2022-08-18T13:16:14;97406.94;;;28.53;42.60
42601;BME280;28229;48.856;9.088;2022-08-18T13:18:40;97402.03;;;28.42;43.14
42601;BME280;28229;48.856;9.088;2022-08-18T13:21:15;97396.38;;;28.47;42.82
42601;BME280;28229;48.856;9.088;2022-08-18T13:23:41;97384.44;;;28.64;42.29
42601;BME280;28229;48.856;9.088;2022-08-18T13:26:10;97379.91;;;28.84;42.11
42601;BME280;28229;48.856;9.088;2022-08-18T13:28:37;97380.94;;;28.96;41.74
42601;BME280;28229;48.856;9.088;2022-08-18T13:31:05;97388.97;;;28.76;42.78
42601;BME280;28229;48.856;9.088;2022-08-18T13:33:31;97392.13;;;28.78;42.33
42601;BME280;28229;48.856;9.088;2022-08-18T13:35:58;97387.84;;;28.77;42.08
42601;BME280;28229;48.856;9.088;2022-08-18T13:38:24;97390.53;;;28.45;42.50
42601;BME280;28229;48.856;9.088;2022-08-18T13:40:52;97388.81;;;28.69;42.46
42601;BME280;28229;48.856;9.088;2022-08-18T13:43:23;97390.59;;;28.33;42.50
42601;BME280;28229;48.856;9.088;2022-08-18T13:45:56;97396.66;;;28.58;42.53
42601;BME280;28229;48.856;9.088;2022-08-18T13:48:23;97399.13;;;28.79;41.83
42601;BME280;28229;48.856;9.088;2022-08-18T13:50:52;97394.91;;;28.98;41.89
42601;BME280;28229;48.856;9.088;2022-08-18T13:53:19;97400.22;;;29.26;40.74
42601;BME280;28229;48.856;9.088;2022-08-18T13:55:46;97410.44;;;29.52;40.39
42601;BME280;28229;48.856;9.088;2022-08-18T13:58:12;97404.72;;;29.38;40.18
42601;BME280;28229;48.856;9.088;2022-08-18T14:00:39;97401.09;;;29.50;40.79
42601;BME280;28229;48.856;9.088;2022-08-18T14:03:06;97393.28;;;29.29;41.05
42601;BME280;28229;48.856;9.088;2022-08-18T14:05:33;97389.19;;;29.35;40.14
42601;BME280;28229;48.856;9.088;2022-08-18T14:07:59;97381.91;;;29.58;40.45
42601;BME280;28229;48.856;9.088;2022-08-18T14:10:26;97377.63;;;29.38;40.08
42601;BME280;28229;48.856;9.088;2022-08-18T14:12:56;97379.00;;;29.48;40.51
42601;BME280;28229;48.856;9.088;2022-08-18T14:15:23;97382.09;;;29.30;40.80
42601;BME280;28229;48.856;9.088;2022-08-18T14:17:49;97379.81;;;28.97;41.10
42601;BME280;28229;48.856;9.088;2022-08-18T14:20:16;97390.00;;;28.88;41.27
42601;BME280;28229;48.856;9.088;2022-08-18T14:23:01;97390.97;;;28.95;40.40
42601;BME280;28229;48.856;9.088;2022-08-18T14:25:46;97393.44;;;28.84;41.08
42601;BME280;28229;48.856;9.088;2022-08-18T14:28:32;97385.69;;;28.67;41.17
42601;BME280;28229;48.856;9.088;2022-08-18T14:31:00;97386.53;;;28.71;40.72
42601;BME280;28229;48.856;9.088;2022-08-18T14:33:33;97381.72;;;28.64;41.76
42601;BME280;28229;48.856;9.088;2022-08-18T14:36:04;97384.63;;;28.56;41.02
42601;BME280;28229;48.856;9.088;2022-08-18T14:38:31;97380.00;;;28.56;40.78
42601;BME280;28229;48.856;9.088;2022-08-18T14:40:59;97386.38;;;28.64;40.94
42601;BME280;28229;48.856;9.088;2022-08-18T14:43:27;97383.66;;;28.64;40.47
42601;BME280;28229;48.856;9.088;2022-08-18T14:45:53;97391.91;;;28.39;40.80
42601;BME280;28229;48.856;9.088;2022-08-18T14:48:20;97383.34;;;28.37;41.13
42601;BME280;28229;48.856;9.088;2022-08-18T14:50:49;97380.78;;;28.57;40.24
42601;BME280;28229;48.856;9.088;2022-08-18T14:53:18;97390.25;;;28.35;40.71
42601;BME280;28229;48.856;9.088;2022-08-18T14:55:46;97393.50;;;28.40;40.91
42601;BME280;28229;48.856;9.088;2022-08-18T14:58:13;97390.44;;;28.42;41.57
42601;BME280;28229;48.856;9.088;2022-08-18T15:00:39;97390.91;;;28.60;41.00
42601;BME280;28229;48.856;9.088;2022-08-18T15:03:05;97386.38;;;28.64;40.55
42601;BME280;28229;48.856;9.088;2022-08-18T15:05:31;97391.16;;;28.55;40.59
42601;BME280;28229;48.856;9.088;2022-08-18T15:07:59;97393.81;;;28.23;41.64
42601;BME280;28229;48.856;9.088;2022-08-18T15:10:28;97395.03;;;28.41;41.22
42601;BME280;28229;48.856;9.088;2022-08-18T15:12:55;97394.41;;;28.60;40.50
42601;BME280;28229;48.856;9.088;2022-08-18T15:15:22;97396.06;;;28.81;40.02
42601;BME280;28229;48.856;9.088;2022-08-18T15:17:50;97391.84;;;28.83;40.01
42601;BME280;28229;48.856;9.088;2022-08-18T15:20:16;97388.19;;;28.92;39.94
42601;BME280;28229;48.856;9.088;2022-08-18T15:22:44;97396.47;;;28.99;39.05
42601;BME280;28229;48.856;9.088;2022-08-18T15:25:29;97397.44;;;28.91;39.64
42601;BME280;28229;48.856;9.088;2022-08-18T15:28:22;97393.44;;;28.69;39.54
42601;BME280;28229;48.856;9.088;2022-08-18T15:30:49;97399.50;;;28.49;39.95
42601;BME280;28229;48.856;9.088;2022-08-18T15:33:17;97395.59;;;28.31;40.42
42601;BME280;28229;48.856;9.088;2022-08-18T15:35:44;97393.91;;;28.26;40.30
42601;BME280;28229;48.856;9.088;2022-08-18T15:38:15;97392.25;;;28.22;41.02